createdAt,value
2017-01-15T00:00:40.881Z,0.15
2017-01-15T00:02:02.939Z,0.29
2017-01-15T00:03:25.440Z,0.29
2017-01-15T00:04:47.542Z,0.36
2017-01-15T00:06:10.384Z,0.35
2017-01-15T00:07:32.608Z,0.55
2017-01-15T00:08:54.668Z,0.42
2017-01-15T00:10:17.559Z,0.55
2017-01-15T00:11:39.626Z,0.47
2017-01-15T00:13:01.277Z,0.62
2017-01-15T00:14:24.231Z,0.61
2017-01-15T00:15:46.307Z,0.57
2017-01-15T00:17:08.763Z,0.58
2017-01-15T00:18:31.609Z,0.6
2017-01-15T00:19:54.113Z,0.66
2017-01-15T00:21:16.275Z,0.7
2017-01-15T00:22:38.380Z,0.68
2017-01-15T00:24:00.845Z,0.58
2017-01-15T00:25:23.700Z,0.6
2017-01-15T00:26:45.733Z,0.46
2017-01-15T00:28:07.903Z,0.51
2017-01-15T00:29:30.070Z,0.41
2017-01-15T00:30:52.149Z,0.35
2017-01-15T00:32:14.223Z,0.35
2017-01-15T00:33:36.268Z,0.33
2017-01-15T00:34:57.931Z,0.23
2017-01-15T00:36:20.475Z,0.26
2017-01-15T00:37:42.542Z,0.13
2017-01-15T00:39:04.773Z,0.15
2017-01-15T00:40:26.857Z,0.08
2017-01-15T00:41:49.343Z,0.08
2017-01-15T00:43:11.000Z,0.07
2017-01-15T00:44:33.850Z,0.03
2017-01-15T00:45:55.957Z,-0.03
2017-01-15T00:47:17.619Z,-0.08
2017-01-15T00:48:40.500Z,-0.21
2017-01-15T00:50:02.141Z,-0.19
2017-01-15T00:51:24.201Z,-0.22
2017-01-15T00:52:46.249Z,-0.19
2017-01-15T00:54:07.966Z,-0.14
2017-01-15T00:55:30.401Z,-0.15
2017-01-15T00:56:53.219Z,-0.25
2017-01-15T00:58:16.177Z,-0.29
2017-01-15T00:59:37.546Z,-0.19
2017-01-15T01:00:59.599Z,-0.21
2017-01-15T01:02:22.079Z,-0.29
2017-01-15T01:03:44.618Z,-0.33
2017-01-15T01:05:07.056Z,-0.44
2017-01-15T01:06:29.942Z,-0.42
2017-01-15T01:07:52.384Z,-0.39
2017-01-15T01:09:14.425Z,-0.39
2017-01-15T01:10:36.084Z,-0.36
2017-01-15T01:11:58.139Z,-0.34
2017-01-15T01:13:20.321Z,-0.26
2017-01-15T01:14:42.439Z,-0.15
2017-01-15T01:16:04.924Z,-0.15
2017-01-15T01:17:26.980Z,-0.18
2017-01-15T01:18:48.652Z,-0.14
2017-01-15T01:20:11.182Z,-0.15
2017-01-15T01:21:33.620Z,-0.18
2017-01-15T01:22:55.269Z,-0.14
2017-01-15T01:24:17.834Z,-0.15
2017-01-15T01:25:40.028Z,-0.21
2017-01-15T01:27:01.674Z,-0.18
2017-01-15T01:28:24.205Z,-0.1
2017-01-15T01:29:46.361Z,-0.18
2017-01-15T01:31:08.103Z,-0.1
2017-01-15T01:32:30.633Z,-0.05
2017-01-15T01:33:53.094Z,-0.04
2017-01-15T01:35:15.931Z,0.08
2017-01-15T01:36:38.778Z,0.15
2017-01-15T01:38:01.361Z,0.1
2017-01-15T01:39:23.029Z,0.15
2017-01-15T01:40:45.188Z,0.17
2017-01-15T01:42:06.912Z,0.21
2017-01-15T01:43:28.316Z,0.31
2017-01-15T01:44:50.860Z,0.28
2017-01-15T01:46:13.340Z,0.31
2017-01-15T01:47:35.390Z,0.39
2017-01-15T01:48:57.036Z,0.44
2017-01-15T01:50:19.080Z,0.5
2017-01-15T01:51:41.525Z,0.55
2017-01-15T01:53:03.576Z,0.55
2017-01-15T01:54:25.228Z,0.44
2017-01-15T01:55:47.691Z,0.38
2017-01-15T01:57:10.512Z,0.35
2017-01-15T01:58:32.954Z,0.26
2017-01-15T01:59:55.008Z,0.13
2017-01-15T02:01:17.210Z,0.1
2017-01-15T02:02:39.239Z,0.08
2017-01-15T02:04:01.692Z,0.08
2017-01-15T02:05:23.383Z,0.07
2017-01-15T02:06:46.318Z,0.17
2017-01-15T02:08:07.990Z,0.26
2017-01-15T02:09:30.441Z,0.23
2017-01-15T02:10:52.573Z,0.28
2017-01-15T02:12:15.477Z,0.28
2017-01-15T02:13:37.527Z,0.36
2017-01-15T02:15:00.040Z,0.26
2017-01-15T02:16:21.690Z,0.28
2017-01-15T02:17:44.532Z,0.04
2017-01-15T02:19:06.979Z,0.07
2017-01-15T02:20:29.037Z,0.03
2017-01-15T02:21:51.095Z,-0.07
2017-01-15T02:23:11.963Z,-0.14
2017-01-15T02:24:34.897Z,-0.18
2017-01-15T02:25:56.946Z,-0.33
2017-01-15T02:27:19.200Z,-0.37
2017-01-15T02:28:41.380Z,-0.44
2017-01-15T02:30:03.032Z,-0.43
2017-01-15T02:31:25.090Z,-0.54
2017-01-15T02:32:47.541Z,-0.69
2017-01-15T02:34:09.591Z,-0.69
2017-01-15T02:35:32.039Z,-0.79
2017-01-15T02:36:54.641Z,-0.85
2017-01-15T02:38:16.676Z,-0.91
2017-01-15T02:39:39.118Z,-0.91
2017-01-15T02:41:01.238Z,-0.99
2017-01-15T02:42:23.295Z,-0.99
2017-01-15T02:43:45.371Z,-0.94
2017-01-15T02:45:07.024Z,-1.04
2017-01-15T02:46:29.102Z,-0.95
2017-01-15T02:47:50.341Z,-1.05
2017-01-15T02:49:12.404Z,-0.97
2017-01-15T02:50:34.497Z,-1.04
2017-01-15T02:51:56.541Z,-0.89
2017-01-15T02:53:17.783Z,-0.8
2017-01-15T02:54:39.433Z,-0.75
2017-01-15T02:56:00.289Z,-0.7
2017-01-15T02:57:22.780Z,-0.62
2017-01-15T02:58:44.890Z,-0.62
2017-01-15T03:00:06.952Z,-0.52
2017-01-15T03:01:29.146Z,-0.44
2017-01-15T03:02:50.833Z,-0.4
2017-01-15T03:04:13.420Z,-0.36
2017-01-15T03:05:35.858Z,-0.43
2017-01-15T03:06:57.956Z,-0.51
2017-01-15T03:08:20.447Z,-0.51
2017-01-15T03:09:42.098Z,-0.52
2017-01-15T03:11:04.146Z,-0.47
2017-01-15T03:12:26.365Z,-0.39
2017-01-15T03:13:48.961Z,-0.39
2017-01-15T03:15:11.420Z,-0.36
2017-01-15T03:16:32.822Z,-0.4
2017-01-15T03:17:54.865Z,-0.36
2017-01-15T03:19:17.733Z,-0.26
2017-01-15T03:20:40.184Z,-0.28
2017-01-15T03:22:02.687Z,-0.21
2017-01-15T03:23:24.493Z,-0.15
2017-01-15T03:24:46.958Z,-0.07
2017-01-15T03:26:09.388Z,-0.1
2017-01-15T03:27:31.082Z,-0.15
2017-01-15T03:28:53.146Z,-0.15
2017-01-15T03:30:15.995Z,-0.1
2017-01-15T03:31:37.342Z,-0.16
2017-01-15T03:32:59.792Z,-0.18
2017-01-15T03:34:21.905Z,-0.16
2017-01-15T03:35:44.060Z,-0.11
2017-01-15T03:37:05.724Z,-0.21
2017-01-15T03:38:28.334Z,-0.22
2017-01-15T03:39:50.387Z,-0.36
2017-01-15T03:41:13.267Z,-0.39
2017-01-15T03:42:35.718Z,-0.43
2017-01-15T03:43:57.031Z,-0.52
2017-01-15T03:45:19.470Z,-0.58
2017-01-15T03:46:42.323Z,-0.67
2017-01-15T03:48:04.446Z,-0.82
2017-01-15T03:49:25.718Z,-0.82
2017-01-15T03:50:47.747Z,-0.86
2017-01-15T03:52:09.828Z,-1.02
2017-01-15T03:53:31.877Z,-1.12
2017-01-15T03:54:54.326Z,-1.12
2017-01-15T03:56:16.373Z,-1.12
2017-01-15T03:57:37.709Z,-1.15
2017-01-15T03:58:59.337Z,-1.25
2017-01-15T04:00:20.993Z,-1.23
2017-01-15T04:01:42.242Z,-1.43
2017-01-15T04:03:04.004Z,-1.35
2017-01-15T04:04:26.256Z,-1.45
2017-01-15T04:05:47.906Z,-1.51
2017-01-15T04:07:09.986Z,-1.34
2017-01-15T04:08:31.674Z,-1.38
2017-01-15T04:09:53.327Z,-1.28
2017-01-15T04:11:15.908Z,-1.31
2017-01-15T04:12:37.942Z,-1.31
2017-01-15T04:14:00.438Z,-1.17
2017-01-15T04:15:21.835Z,-1.12
2017-01-15T04:16:43.906Z,-1.05
2017-01-15T04:18:06.001Z,-1.01
2017-01-15T04:19:26.917Z,-1.01
2017-01-15T04:20:48.636Z,-1.07
2017-01-15T04:22:11.511Z,-0.91
2017-01-15T04:23:34.024Z,-1.07
2017-01-15T04:24:56.116Z,-1.01
2017-01-15T04:26:18.596Z,-0.91
2017-01-15T04:27:41.588Z,-1.01
2017-01-15T04:29:03.650Z,-0.92
2017-01-15T04:30:26.181Z,-1.04
2017-01-15T04:31:47.874Z,-1.12
2017-01-15T04:33:09.939Z,-1.17
2017-01-15T04:34:32.919Z,-1.13
2017-01-15T04:35:54.567Z,-1.17
2017-01-15T04:37:16.627Z,-1.22
2017-01-15T04:38:38.715Z,-1.25
2017-01-15T04:40:00.528Z,-1.35
2017-01-15T04:41:21.826Z,-1.34
2017-01-15T04:42:43.919Z,-1.31
2017-01-15T04:44:05.577Z,-1.41
2017-01-15T04:45:27.623Z,-1.38
2017-01-15T04:46:50.479Z,-1.45
2017-01-15T04:48:12.540Z,-1.4
2017-01-15T04:49:34.687Z,-1.31
2017-01-15T04:50:57.140Z,-1.27
2017-01-15T04:52:19.687Z,-1.16
2017-01-15T04:53:41.336Z,-1.1
2017-01-15T04:55:03.486Z,-1.1
2017-01-15T04:56:25.926Z,-1.13
2017-01-15T04:57:47.972Z,-1.16
2017-01-15T04:59:10.063Z,-1.2
2017-01-15T05:00:31.744Z,-1.13
2017-01-15T05:01:54.276Z,-1.15
2017-01-15T05:03:16.593Z,-1.22
2017-01-15T05:04:39.045Z,-1.22
2017-01-15T05:06:00.690Z,-1.31
2017-01-15T05:07:22.376Z,-1.34
2017-01-15T05:08:44.875Z,-1.33
2017-01-15T05:10:06.944Z,-1.27
2017-01-15T05:11:28.987Z,-1.38
2017-01-15T05:12:50.664Z,-1.33
2017-01-15T05:14:12.873Z,-1.46
2017-01-15T05:15:34.924Z,-1.51
2017-01-15T05:16:56.542Z,-1.62
2017-01-15T05:18:18.574Z,-1.66
2017-01-15T05:19:41.513Z,-1.7
2017-01-15T05:21:02.792Z,-1.87
2017-01-15T05:22:24.816Z,-1.88
2017-01-15T05:23:46.852Z,-2.02
2017-01-15T05:25:09.411Z,-1.95
2017-01-15T05:26:31.985Z,-1.87
2017-01-15T05:27:53.633Z,-1.97
2017-01-15T05:29:16.086Z,-2.1
2017-01-15T05:30:38.184Z,-2.06
2017-01-15T05:32:00.663Z,-2.06
2017-01-15T05:33:22.705Z,-1.98
2017-01-15T05:34:44.419Z,-2
2017-01-15T05:36:06.487Z,-2.08
2017-01-15T05:37:29.097Z,-2.08
2017-01-15T05:38:51.543Z,-2.02
2017-01-15T05:40:13.580Z,-2.1
2017-01-15T05:41:35.235Z,-2.13
2017-01-15T05:42:57.354Z,-2.09
2017-01-15T05:44:19.004Z,-2.09
2017-01-15T05:45:40.682Z,-2.09
2017-01-15T05:47:02.703Z,-2.13
2017-01-15T05:48:24.754Z,-2.32
2017-01-15T05:49:46.392Z,-2.26
2017-01-15T05:51:07.639Z,-2.27
2017-01-15T05:52:29.684Z,-2.35
2017-01-15T05:53:51.352Z,-2.49
2017-01-15T05:55:13.041Z,-2.55
2017-01-15T05:56:35.935Z,-2.45
2017-01-15T05:57:57.570Z,-2.52
2017-01-15T05:59:19.414Z,-2.53
2017-01-15T06:00:41.847Z,-2.61
2017-01-15T06:02:03.894Z,-2.55
2017-01-15T06:03:26.051Z,-2.63
2017-01-15T06:04:47.704Z,-2.68
2017-01-15T06:06:10.262Z,-2.64
2017-01-15T06:07:32.352Z,-2.61
2017-01-15T06:08:53.603Z,-2.6
2017-01-15T06:10:16.255Z,-2.5
2017-01-15T06:11:38.386Z,-2.48
2017-01-15T06:13:00.833Z,-2.37
2017-01-15T06:14:22.183Z,-2.49
2017-01-15T06:15:43.912Z,-2.42
2017-01-15T06:17:06.351Z,-2.4
2017-01-15T06:18:28.135Z,-2.24
2017-01-15T06:20:22.080Z,-2.3
2017-01-15T06:21:44.588Z,-2.34
2017-01-15T06:23:06.242Z,-2.39
2017-01-15T06:24:27.913Z,-2.35
2017-01-15T06:25:50.733Z,-2.5
2017-01-15T06:27:13.173Z,-2.5
2017-01-15T06:28:34.830Z,-2.52
2017-01-15T06:29:55.684Z,-2.5
2017-01-15T06:31:17.733Z,-2.56
2017-01-15T06:32:39.773Z,-2.61
2017-01-15T06:34:01.856Z,-2.66
2017-01-15T06:35:23.493Z,-2.7
2017-01-15T06:36:45.941Z,-2.71
2017-01-15T06:38:08.393Z,-2.85
2017-01-15T06:39:31.270Z,-2.85
2017-01-15T06:40:53.693Z,-2.77
2017-01-15T06:42:14.934Z,-2.79
2017-01-15T06:43:37.773Z,-2.84
2017-01-15T06:44:59.415Z,-2.77
2017-01-15T06:46:21.465Z,-2.82
2017-01-15T06:47:43.915Z,-2.78
2017-01-15T06:49:06.801Z,-2.85
2017-01-15T06:50:28.832Z,-2.86
2017-01-15T06:51:50.899Z,-2.88
2017-01-15T06:53:12.950Z,-2.86
2017-01-15T06:54:35.002Z,-2.84
2017-01-15T06:55:56.667Z,-2.86
2017-01-15T06:57:18.325Z,-2.79
2017-01-15T06:58:40.825Z,-2.84
2017-01-15T07:00:02.860Z,-2.85
2017-01-15T07:01:25.327Z,-2.96
2017-01-15T07:02:47.385Z,-2.94
2017-01-15T07:04:09.418Z,-3.02
2017-01-15T07:05:30.466Z,-3.03
2017-01-15T07:06:53.325Z,-2.96
2017-01-15T07:08:15.801Z,-2.97
2017-01-15T07:09:37.633Z,-2.96
2017-01-15T07:11:00.102Z,-2.97
2017-01-15T07:12:22.605Z,-2.99
2017-01-15T07:13:44.676Z,-2.92
2017-01-15T07:15:07.654Z,-2.94
2017-01-15T07:16:30.091Z,-2.92
2017-01-15T07:17:51.779Z,-2.88
2017-01-15T07:19:13.430Z,-2.79
2017-01-15T07:20:35.876Z,-2.78
2017-01-15T07:21:58.850Z,-2.82
2017-01-15T07:23:21.336Z,-2.77
2017-01-15T07:24:43.767Z,-2.79
2017-01-15T07:26:06.270Z,-2.73
2017-01-15T07:27:29.245Z,-2.79
2017-01-15T07:28:51.286Z,-2.77
2017-01-15T07:30:13.339Z,-2.78
2017-01-15T07:31:34.997Z,-2.73
2017-01-15T07:32:57.076Z,-2.82
2017-01-15T07:34:19.534Z,-2.88
2017-01-15T07:35:41.980Z,-2.85
2017-01-15T07:37:04.605Z,-2.82
2017-01-15T07:38:26.387Z,-2.81
2017-01-15T07:39:48.136Z,-2.82
2017-01-15T07:41:10.978Z,-2.84
2017-01-15T07:42:33.143Z,-2.81
2017-01-15T07:43:54.810Z,-2.86
2017-01-15T07:45:16.474Z,-2.84
2017-01-15T07:46:38.953Z,-2.79
2017-01-15T07:48:01.416Z,-2.79
2017-01-15T07:49:23.916Z,-2.81
2017-01-15T07:50:46.093Z,-2.82
2017-01-15T07:52:08.145Z,-2.81
2017-01-15T07:53:30.912Z,-2.82
2017-01-15T07:54:53.353Z,-2.77
2017-01-15T07:56:15.403Z,-2.7
2017-01-15T07:57:37.842Z,-2.66
2017-01-15T07:58:59.110Z,-2.66
2017-01-15T08:00:21.544Z,-2.63
2017-01-15T08:01:43.991Z,-2.52
2017-01-15T08:03:05.776Z,-2.56
2017-01-15T08:04:28.646Z,-2.5
2017-01-15T08:05:51.296Z,-2.5
2017-01-15T08:07:13.344Z,-2.39
2017-01-15T08:08:35.784Z,-2.55
2017-01-15T08:09:58.225Z,-2.39
2017-01-15T08:11:20.280Z,-2.34
2017-01-15T08:12:42.411Z,-2.2
2017-01-15T08:14:04.885Z,-2.16
2017-01-15T08:15:27.603Z,-1.91
2017-01-15T08:16:50.072Z,-1.92
2017-01-15T08:18:12.526Z,-1.82
2017-01-15T08:19:35.025Z,-1.72
2017-01-15T08:20:57.461Z,-1.56
2017-01-15T08:22:19.564Z,-1.51
2017-01-15T08:23:42.405Z,-1.27
2017-01-15T08:25:04.911Z,-1.28
2017-01-15T08:26:27.019Z,-1.15
2017-01-15T08:27:49.724Z,-1.02
2017-01-15T08:29:11.790Z,-0.92
2017-01-15T08:30:33.941Z,-0.79
2017-01-15T08:31:56.424Z,-0.73
2017-01-15T08:33:18.067Z,-0.51
2017-01-15T08:34:40.568Z,-0.43
2017-01-15T08:36:03.166Z,-0.47
2017-01-15T08:37:25.624Z,-0.42
2017-01-15T08:38:48.074Z,-0.23
2017-01-15T08:40:11.002Z,-0.19
2017-01-15T08:41:33.853Z,-0.19
2017-01-15T08:42:56.576Z,-0.15
2017-01-15T08:44:18.621Z,-0.05
2017-01-15T08:45:40.300Z,0.08
2017-01-15T08:47:02.859Z,0.07
2017-01-15T08:48:25.717Z,0.13
2017-01-15T08:49:48.227Z,0.32
2017-01-15T08:51:10.706Z,0.26
2017-01-15T08:52:32.810Z,0.36
2017-01-15T08:53:55.272Z,0.41
2017-01-15T08:55:18.155Z,0.5
2017-01-15T08:56:40.682Z,0.39
2017-01-15T08:58:03.150Z,0.51
2017-01-15T08:59:25.342Z,0.53
2017-01-15T09:00:47.789Z,0.42
2017-01-15T09:02:10.260Z,0.39
2017-01-15T09:03:32.337Z,0.35
2017-01-15T09:04:54.119Z,0.23
2017-01-15T09:06:15.923Z,0.21
2017-01-15T09:07:38.033Z,0.23
2017-01-15T09:09:00.500Z,0.11
2017-01-15T09:10:22.834Z,0.07
2017-01-15T09:11:45.699Z,0.04
2017-01-15T09:13:07.410Z,0.15
2017-01-15T09:14:29.460Z,0.04
2017-01-15T09:15:52.043Z,0
2017-01-15T09:17:14.574Z,0.13
2017-01-15T09:18:37.090Z,0.17
2017-01-15T09:19:59.939Z,0.28
2017-01-15T09:21:21.980Z,0.29
2017-01-15T09:23:16.385Z,0.57
2017-01-15T09:24:38.478Z,0.53
2017-01-15T09:26:01.068Z,0.61
2017-01-15T09:27:22.713Z,0.87
2017-01-15T09:28:44.849Z,0.93
2017-01-15T09:30:07.301Z,1
2017-01-15T09:31:30.317Z,1.02
2017-01-15T09:32:52.761Z,0.97
2017-01-15T09:34:15.750Z,1.05
2017-01-15T09:35:37.415Z,1.06
2017-01-15T09:37:00.061Z,0.98
2017-01-15T09:38:22.099Z,0.94
2017-01-15T09:39:45.002Z,0.96
2017-01-15T09:41:07.067Z,1.02
2017-01-15T09:42:28.842Z,1.06
2017-01-15T09:43:51.307Z,1
2017-01-15T09:45:14.201Z,1
2017-01-15T09:46:36.269Z,1.09
2017-01-15T09:47:58.743Z,1.11
2017-01-15T09:49:20.804Z,1.23
2017-01-15T09:50:43.245Z,1.16
2017-01-15T09:52:06.107Z,1.2
2017-01-15T09:53:28.160Z,1.22
2017-01-15T09:54:50.269Z,1.23
2017-01-15T09:56:11.937Z,1.32
2017-01-15T09:57:34.812Z,1.37
2017-01-15T09:58:56.577Z,1.41
2017-01-15T10:00:18.875Z,1.36
2017-01-15T10:01:40.968Z,1.4
2017-01-15T10:03:03.059Z,1.44
2017-01-15T10:04:25.531Z,1.5
2017-01-15T10:05:47.669Z,1.47
2017-01-15T10:07:10.202Z,1.5
2017-01-15T10:08:32.253Z,1.51
2017-01-15T10:09:54.480Z,1.55
2017-01-15T10:11:17.343Z,1.58
2017-01-15T10:12:39.504Z,1.65
2017-01-15T10:14:01.167Z,1.59
2017-01-15T10:15:23.692Z,1.59
2017-01-15T10:16:46.553Z,1.42
2017-01-15T10:18:08.375Z,1.32
2017-01-15T10:19:31.277Z,1.36
2017-01-15T10:20:53.365Z,1.26
2017-01-15T10:22:15.834Z,1.26
2017-01-15T10:23:38.303Z,1.29
2017-01-15T10:25:01.166Z,1.26
2017-01-15T10:26:23.655Z,1.22
2017-01-15T10:27:46.153Z,1.12
2017-01-15T10:29:09.103Z,1.09
2017-01-15T10:30:31.995Z,1.08
2017-01-15T10:31:54.475Z,1.11
2017-01-15T10:33:17.306Z,1.06
2017-01-15T10:34:40.210Z,1.09
2017-01-15T10:36:02.764Z,1.15
2017-01-15T10:37:25.236Z,1.2
2017-01-15T10:38:48.084Z,1.22
2017-01-15T10:40:10.935Z,1.24
2017-01-15T10:41:33.009Z,1.18
2017-01-15T10:42:56.115Z,1.3
2017-01-15T10:44:18.356Z,1.34
2017-01-15T10:45:40.822Z,1.45
2017-01-15T10:47:02.921Z,1.45
2017-01-15T10:48:24.992Z,1.55
2017-01-15T10:49:47.499Z,1.66
2017-01-15T10:51:09.962Z,1.69
2017-01-15T10:52:32.588Z,1.79
2017-01-15T10:53:55.459Z,1.95
2017-01-15T10:55:17.539Z,1.95
2017-01-15T10:56:39.194Z,1.99
2017-01-15T10:58:02.063Z,2.06
2017-01-15T10:59:24.154Z,2.23
2017-01-15T11:00:46.624Z,2.3
2017-01-15T11:02:09.201Z,2.39
2017-01-15T11:03:31.653Z,2.52
2017-01-15T11:04:54.150Z,2.64
2017-01-15T11:06:16.263Z,2.66
2017-01-15T11:07:38.421Z,2.71
2017-01-15T11:09:00.603Z,2.85
2017-01-15T11:10:22.776Z,2.78
2017-01-15T11:11:45.611Z,2.95
2017-01-15T11:13:07.680Z,2.89
2017-01-15T11:14:30.545Z,2.99
2017-01-15T11:15:52.244Z,2.84
2017-01-15T11:17:14.384Z,2.87
2017-01-15T11:18:36.589Z,2.89
2017-01-15T11:19:59.257Z,2.78
2017-01-15T11:21:21.448Z,2.87
2017-01-15T11:22:43.897Z,2.79
2017-01-15T11:24:06.366Z,2.74
2017-01-15T11:25:28.863Z,2.71
2017-01-15T11:26:50.513Z,2.67
2017-01-15T11:28:13.373Z,2.63
2017-01-15T11:29:36.399Z,2.6
2017-01-15T11:30:58.882Z,2.6
2017-01-15T11:32:21.131Z,2.48
2017-01-15T11:33:43.727Z,2.56
2017-01-15T11:35:05.808Z,2.35
2017-01-15T11:36:27.493Z,2.36
2017-01-15T11:37:50.195Z,2.36
2017-01-15T11:39:13.105Z,2.42
2017-01-15T11:40:36.035Z,2.42
2017-01-15T11:41:58.914Z,2.41
2017-01-15T11:43:21.053Z,2.34
2017-01-15T11:44:43.913Z,2.38
2017-01-15T11:46:06.797Z,2.35
2017-01-15T11:47:28.898Z,2.34
2017-01-15T11:48:51.864Z,2.23
2017-01-15T11:50:14.406Z,2.14
2017-01-15T11:51:36.912Z,2.09
2017-01-15T11:52:59.856Z,1.99
2017-01-15T11:54:22.498Z,1.95
2017-01-15T11:55:44.283Z,1.84
2017-01-15T11:57:06.370Z,1.79
2017-01-15T11:58:29.239Z,1.77
2017-01-15T11:59:52.235Z,1.7
2017-01-15T12:01:15.205Z,1.55
2017-01-15T12:02:37.295Z,1.6
2017-01-15T12:04:00.227Z,1.59
2017-01-15T12:05:22.701Z,1.6
2017-01-15T12:06:45.197Z,1.59
2017-01-15T12:08:06.876Z,1.62
2017-01-15T12:09:29.387Z,1.63
2017-01-15T12:10:51.887Z,1.63
2017-01-15T12:12:13.543Z,1.77
2017-01-15T12:13:35.605Z,1.68
2017-01-15T12:14:58.121Z,1.76
2017-01-15T12:16:20.592Z,1.73
2017-01-15T12:17:42.732Z,1.73
2017-01-15T12:19:04.922Z,1.77
2017-01-15T12:20:27.089Z,1.8
2017-01-15T12:21:49.157Z,1.87
2017-01-15T12:23:11.639Z,1.84
2017-01-15T12:24:33.818Z,1.93
2017-01-15T12:25:55.885Z,1.9
2017-01-15T12:27:18.751Z,1.9
2017-01-15T12:28:40.504Z,1.91
2017-01-15T12:30:03.380Z,2.03
2017-01-15T12:31:25.576Z,1.93
2017-01-15T12:32:47.724Z,2
2017-01-15T12:34:10.198Z,1.95
2017-01-15T12:35:32.749Z,1.98
2017-01-15T12:36:55.282Z,2
2017-01-15T12:38:17.721Z,2.12
2017-01-15T12:39:40.734Z,2.03
2017-01-15T12:41:03.209Z,2.03
2017-01-15T12:42:25.698Z,2
2017-01-15T12:43:48.188Z,2.05
2017-01-15T12:45:10.293Z,2.14
2017-01-15T12:46:32.392Z,2.12
2017-01-15T12:47:54.485Z,2.14
2017-01-15T12:49:17.080Z,2.12
2017-01-15T12:50:38.831Z,2.16
2017-01-15T12:52:00.893Z,2.14
2017-01-15T12:53:23.755Z,2.1
2017-01-15T12:55:18.111Z,2.02
2017-01-15T12:56:40.224Z,2.05
2017-01-15T12:58:02.740Z,2.09
2017-01-15T12:59:25.623Z,2.07
2017-01-15T13:00:47.382Z,2.16
2017-01-15T13:02:09.880Z,2.06
2017-01-15T13:03:31.941Z,2.1
2017-01-15T13:04:53.632Z,2.12
2017-01-15T13:06:16.119Z,2.05
2017-01-15T13:07:38.574Z,2.06
2017-01-15T13:09:01.111Z,2.1
2017-01-15T13:10:24.029Z,2.06
2017-01-15T13:11:46.673Z,2.12
2017-01-15T13:13:09.261Z,2.12
2017-01-15T13:14:31.785Z,2.02
2017-01-15T13:15:54.282Z,1.99
2017-01-15T13:17:16.514Z,2.02
2017-01-15T13:18:39.010Z,1.91
2017-01-15T13:20:01.100Z,1.99
2017-01-15T13:21:23.713Z,2.02
2017-01-15T13:22:46.232Z,2
2017-01-15T13:24:08.711Z,1.93
2017-01-15T13:25:30.373Z,2.02
2017-01-15T13:26:52.952Z,2
2017-01-15T13:28:14.779Z,1.95
2017-01-15T13:29:37.268Z,1.93
2017-01-15T13:31:00.140Z,1.81
2017-01-15T13:32:22.241Z,1.91
2017-01-15T13:33:44.372Z,1.83
2017-01-15T13:35:07.321Z,1.88
2017-01-15T13:36:30.418Z,1.95
2017-01-15T13:37:52.081Z,1.81
2017-01-15T13:39:13.752Z,1.88
2017-01-15T13:40:36.227Z,1.86
2017-01-15T13:41:58.744Z,1.83
2017-01-15T13:43:21.740Z,1.93
2017-01-15T13:44:43.809Z,1.88
2017-01-15T13:46:05.527Z,1.84
2017-01-15T13:47:27.719Z,1.87
2017-01-15T13:48:50.240Z,2.02
2017-01-15T13:50:12.335Z,1.91
2017-01-15T13:51:34.428Z,1.88
2017-01-15T13:52:56.966Z,1.9
2017-01-15T13:54:19.063Z,1.77
2017-01-15T13:55:41.936Z,1.84
2017-01-15T13:57:05.025Z,1.81
2017-01-15T13:58:27.928Z,1.72
2017-01-15T13:59:50.591Z,1.7
2017-01-15T14:01:12.681Z,1.63
2017-01-15T14:02:34.918Z,1.59
2017-01-15T14:03:56.695Z,1.58
2017-01-15T14:05:19.221Z,1.51
2017-01-15T14:06:41.373Z,1.5
2017-01-15T14:08:03.886Z,1.42
2017-01-15T14:09:26.942Z,1.37
2017-01-15T14:10:48.744Z,1.41
2017-01-15T14:12:11.657Z,1.32
2017-01-15T14:13:33.844Z,1.34
2017-01-15T14:14:55.984Z,1.3
2017-01-15T14:16:18.596Z,1.26
2017-01-15T14:17:41.508Z,1.29
2017-01-15T14:19:04.417Z,1.27
2017-01-15T14:20:26.605Z,1.22
2017-01-15T14:21:49.096Z,1.16
2017-01-15T14:23:11.687Z,1.06
2017-01-15T14:24:33.836Z,1.16
2017-01-15T14:25:56.887Z,1.12
2017-01-15T14:27:19.577Z,1.08
2017-01-15T14:28:42.071Z,1.02
2017-01-15T14:30:05.094Z,1.02
2017-01-15T14:31:27.696Z,0.9
2017-01-15T14:32:50.368Z,0.9
2017-01-15T14:34:12.982Z,0.91
2017-01-15T14:35:35.907Z,0.88
2017-01-15T14:36:58.419Z,0.84
2017-01-15T14:38:21.433Z,0.76
2017-01-15T14:39:43.980Z,0.8
2017-01-15T14:41:05.772Z,0.78
2017-01-15T14:42:28.835Z,0.76
2017-01-15T14:43:51.775Z,0.79
2017-01-15T14:45:14.320Z,0.83
2017-01-15T14:46:37.271Z,0.69
2017-01-15T14:47:58.978Z,0.65
2017-01-15T14:49:21.527Z,0.58
2017-01-15T14:50:44.456Z,0.49
2017-01-15T14:52:06.976Z,0.55
2017-01-15T14:53:29.931Z,0.55
2017-01-15T14:54:52.976Z,0.47
2017-01-15T14:56:15.495Z,0.49
2017-01-15T14:57:38.469Z,0.42
2017-01-15T14:59:01.066Z,0.51
2017-01-15T15:00:24.096Z,0.36
2017-01-15T15:01:46.636Z,0.35
2017-01-15T15:03:09.168Z,0.33
2017-01-15T15:04:31.671Z,0.28
2017-01-15T15:05:54.230Z,0.24
2017-01-15T15:07:16.844Z,0.18
2017-01-15T15:08:39.776Z,0.18
2017-01-15T15:10:02.699Z,0.14
2017-01-15T15:11:24.946Z,0.13
2017-01-15T15:12:47.866Z,0.03
2017-01-15T15:14:10.394Z,0.02
2017-01-15T15:15:32.532Z,-0.07
2017-01-15T15:16:54.643Z,-0.11
2017-01-15T15:18:16.806Z,-0.08
2017-01-15T15:19:39.336Z,-0.16
2017-01-15T15:21:01.852Z,-0.25
2017-01-15T15:22:23.907Z,-0.29
2017-01-15T15:23:46.482Z,-0.36
2017-01-15T15:25:08.554Z,-0.4
2017-01-15T15:26:30.747Z,-0.39
2017-01-15T15:27:52.955Z,-0.44
2017-01-15T15:29:15.444Z,-0.47
2017-01-15T15:30:37.927Z,-0.51
2017-01-15T15:32:00.445Z,-0.54
2017-01-15T15:33:22.914Z,-0.62
2017-01-15T15:34:45.417Z,-0.7
2017-01-15T15:36:08.292Z,-0.82
2017-01-15T15:37:29.998Z,-0.86
2017-01-15T15:38:51.699Z,-0.92
2017-01-15T15:40:13.787Z,-0.98
2017-01-15T15:41:36.294Z,-1.05
2017-01-15T15:42:58.446Z,-0.95
2017-01-15T15:44:21.041Z,-0.95
2017-01-15T15:45:43.174Z,-0.95
2017-01-15T15:47:06.295Z,-1.01
2017-01-15T15:48:29.222Z,-0.94
2017-01-15T15:49:51.721Z,-1.07
2017-01-15T15:51:14.224Z,-0.98
2017-01-15T15:52:36.763Z,-1.1
2017-01-15T15:53:59.752Z,-1.15
2017-01-15T15:55:22.256Z,-1.16
2017-01-15T15:56:44.973Z,-1.12
2017-01-15T15:58:07.469Z,-1.23
2017-01-15T15:59:30.396Z,-1.22
2017-01-15T16:00:53.099Z,-1.31
2017-01-15T16:02:16.036Z,-1.31
2017-01-15T16:03:39.138Z,-1.3
2017-01-15T16:05:02.028Z,-1.38
2017-01-15T16:06:24.231Z,-1.43
2017-01-15T16:07:46.757Z,-1.43
2017-01-15T16:09:08.901Z,-1.49
2017-01-15T16:10:31.414Z,-1.46
2017-01-15T16:11:53.960Z,-1.46
2017-01-15T16:13:16.874Z,-1.55
2017-01-15T16:14:39.008Z,-1.61
2017-01-15T16:16:01.542Z,-1.73
2017-01-15T16:17:24.106Z,-1.72
2017-01-15T16:18:46.616Z,-1.73
2017-01-15T16:20:09.546Z,-1.79
2017-01-15T16:21:31.635Z,-1.91
2017-01-15T16:22:53.732Z,-1.82
2017-01-15T16:24:16.669Z,-1.8
2017-01-15T16:25:38.786Z,-1.87
2017-01-15T16:27:01.750Z,-1.97
2017-01-15T16:28:24.302Z,-1.92
2017-01-15T16:29:47.468Z,-2.02
2017-01-15T16:31:09.601Z,-1.97
2017-01-15T16:32:32.163Z,-1.95
2017-01-15T16:33:54.816Z,-1.91
2017-01-15T16:35:17.362Z,-2.1
2017-01-15T16:36:39.885Z,-2.12
2017-01-15T16:38:02.444Z,-2
2017-01-15T16:39:25.027Z,-1.92
2017-01-15T16:40:48.060Z,-2
2017-01-15T16:42:10.601Z,-1.95
2017-01-15T16:43:33.237Z,-1.97
2017-01-15T16:44:56.159Z,-1.92
2017-01-15T16:46:19.328Z,-1.84
2017-01-15T16:47:41.555Z,-1.98
2017-01-15T16:49:04.515Z,-1.92
2017-01-15T16:50:27.481Z,-2
2017-01-15T16:51:50.957Z,-1.91
2017-01-15T16:53:13.900Z,-1.98
2017-01-15T16:54:36.454Z,-1.97
2017-01-15T16:55:58.595Z,-1.8
2017-01-15T16:57:21.599Z,-1.64
2017-01-15T16:58:43.327Z,-1.58
2017-01-15T17:00:06.294Z,-1.64
2017-01-15T17:01:28.542Z,-1.67
2017-01-15T17:02:51.098Z,-1.7
2017-01-15T17:04:13.649Z,-1.76
2017-01-15T17:05:36.687Z,-1.85
2017-01-15T17:06:59.819Z,-1.84
2017-01-15T17:08:22.788Z,-1.82
2017-01-15T17:09:45.723Z,-1.9
2017-01-15T17:11:08.656Z,-1.94
2017-01-15T17:12:31.613Z,-1.88
2017-01-15T17:13:54.180Z,-1.85
2017-01-15T17:15:17.131Z,-1.84
2017-01-15T17:16:39.310Z,-1.66
2017-01-15T17:18:01.058Z,-1.54
2017-01-15T17:19:24.083Z,-1.58
2017-01-15T17:20:47.051Z,-1.61
2017-01-15T17:22:10.002Z,-1.59
2017-01-15T17:23:33.065Z,-1.61
2017-01-15T17:24:55.952Z,-1.58
2017-01-15T17:26:19.105Z,-1.59
2017-01-15T17:27:42.029Z,-1.77
2017-01-15T17:29:04.721Z,-1.74
2017-01-15T17:31:50.217Z,-1.79
2017-01-15T17:33:12.029Z,-1.84
2017-01-15T17:34:34.381Z,-1.8
2017-01-15T17:35:57.031Z,-1.92
2017-01-15T17:37:19.209Z,-1.91
2017-01-15T17:38:42.172Z,-1.97
2017-01-15T17:40:37.292Z,-1.98
2017-01-15T17:41:59.845Z,-2.03
2017-01-15T17:43:22.920Z,-2
2017-01-15T17:44:45.906Z,-2.08
2017-01-15T17:46:50.351Z,-2.03
2017-01-15T17:48:12.532Z,-2.06
2017-01-15T17:49:35.608Z,-2.08
2017-01-15T17:50:57.954Z,-2.02
2017-01-15T17:52:21.615Z,-2.1
2017-01-15T17:53:43.763Z,-1.95
2017-01-15T17:55:06.317Z,-1.9
2017-01-15T17:56:29.309Z,-1.87
2017-01-15T17:57:52.788Z,-1.88
2017-01-15T17:59:15.060Z,-1.97
2017-01-15T18:00:37.215Z,-1.88
2017-01-15T18:01:59.383Z,-1.91
2017-01-15T18:03:22.370Z,-1.85
2017-01-15T18:04:45.366Z,-1.73